sensor_id;sensor_type;location;lat;lon;timestamp;pressure;altitude;pressure_sealevel;temperature;humidity
53635;BME280;39542;-34.932;138.594;2023-05-23T00:00:08;102267.53;;;15.78;58.78
53635;BME280;39542;-34.932;138.594;2023-05-23T00:00:42;102267.78;;;15.77;58.84
53635;BME280;39542;-34.932;138.594;2023-05-23T00:01:16;102268.10;;;15.78;58.79
53635;BME280;39542;-34.932;138.594;2023-05-23T00:01:51;102267.78;;;15.77;58.79
53635;BME280;39542;-34.932;138.594;2023-05-23T00:02:25;102270.11;;;15.80;58.80
53635;BME280;39542;-34.932;138.594;2023-05-23T00:02:59;102269.75;;;15.80;58.76
53635;BME280;39542;-34.932;138.594;2023-05-23T00:03:34;102270.20;;;15.79;58.79
53635;BME280;39542;-34.932;138.594;2023-05-23T00:04:08;102270.01;;;15.78;58.86
53635;BME280;39542;-34.932;138.594;2023-05-23T00:04:42;102268.48;;;15.78;58.86
53635;BME280;39542;-34.932;138.594;2023-05-23T00:05:17;102270.89;;;15.81;58.78
53635;BME280;39542;-34.932;138.594;2023-05-23T00:05:51;102271.82;;;15.79;58.83
53635;BME280;39542;-34.932;138.594;2023-05-23T00:06:25;102268.53;;;15.80;58.80
53635;BME280;39542;-34.932;138.594;2023-05-23T00:07:00;102270.92;;;15.79;58.83
53635;BME280;39542;-34.932;138.594;2023-05-23T00:07:34;102272.04;;;15.78;58.92
53635;BME280;39542;-34.932;138.594;2023-05-23T00:08:08;102271.89;;;15.76;58.87
53635;BME280;39542;-34.932;138.594;2023-05-23T00:08:43;102271.24;;;15.77;58.86
53635;BME280;39542;-34.932;138.594;2023-05-23T00:09:17;102271.76;;;15.78;58.87
53635;BME280;39542;-34.932;138.594;2023-05-23T00:09:51;102269.92;;;15.78;58.84
53635;BME280;39542;-34.932;138.594;2023-05-23T00:10:26;102269.73;;;15.78;58.86
53635;BME280;39542;-34.932;138.594;2023-05-23T00:11:00;102269.68;;;15.77;58.86
53635;BME280;39542;-34.932;138.594;2023-05-23T00:11:35;102270.47;;;15.77;58.89
53635;BME280;39542;-34.932;138.594;2023-05-23T00:12:09;102271.94;;;15.77;58.92
53635;BME280;39542;-34.932;138.594;2023-05-23T00:12:44;102271.57;;;15.80;58.80
53635;BME280;39542;-34.932;138.594;2023-05-23T00:13:18;102272.87;;;15.78;58.86
53635;BME280;39542;-34.932;138.594;2023-05-23T00:13:52;102270.88;;;15.75;58.92
53635;BME280;39542;-34.932;138.594;2023-05-23T00:14:27;102270.63;;;15.74;58.96
53635;BME280;39542;-34.932;138.594;2023-05-23T00:15:01;102268.68;;;15.75;58.95
53635;BME280;39542;-34.932;138.594;2023-05-23T00:15:36;102266.72;;;15.75;58.91
53635;BME280;39542;-34.932;138.594;2023-05-23T00:16:10;102267.28;;;15.77;58.91
53635;BME280;39542;-34.932;138.594;2023-05-23T00:16:46;102266.26;;;15.78;58.90
53635;BME280;39542;-34.932;138.594;2023-05-23T00:17:20;102266.52;;;15.79;58.86
53635;BME280;39542;-34.932;138.594;2023-05-23T00:17:54;102267.35;;;15.79;58.88
53635;BME280;39542;-34.932;138.594;2023-05-23T00:18:28;102265.90;;;15.80;58.88
53635;BME280;39542;-34.932;138.594;2023-05-23T00:19:03;102268.29;;;15.80;58.87
53635;BME280;39542;-34.932;138.594;2023-05-23T00:19:37;102268.82;;;15.79;58.91
53635;BME280;39542;-34.932;138.594;2023-05-23T00:20:12;102269.50;;;15.81;58.86
53635;BME280;39542;-34.932;138.594;2023-05-23T00:20:46;102268.36;;;15.82;58.83
53635;BME280;39542;-34.932;138.594;2023-05-23T00:21:20;102270.39;;;15.83;58.79
53635;BME280;39542;-34.932;138.594;2023-05-23T00:21:54;102271.29;;;15.83;58.81
53635;BME280;39542;-34.932;138.594;2023-05-23T00:22:29;102272.87;;;15.82;58.87
53635;BME280;39542;-34.932;138.594;2023-05-23T00:23:03;102271.70;;;15.82;58.89
53635;BME280;39542;-34.932;138.594;2023-05-23T00:23:37;102273.63;;;15.82;58.88
53635;BME280;39542;-34.932;138.594;2023-05-23T00:24:12;102272.77;;;15.83;58.85
53635;BME280;39542;-34.932;138.594;2023-05-23T00:24:46;102273.23;;;15.81;58.87
53635;BME280;39542;-34.932;138.594;2023-05-23T00:25:21;102271.95;;;15.80;58.91
53635;BME280;39542;-34.932;138.594;2023-05-23T00:25:55;102275.50;;;15.81;58.97
53635;BME280;39542;-34.932;138.594;2023-05-23T00:26:29;102273.90;;;15.83;58.86
53635;BME280;39542;-34.932;138.594;2023-05-23T00:27:04;102276.40;;;15.82;58.89
53635;BME280;39542;-34.932;138.594;2023-05-23T00:27:39;102275.89;;;15.84;58.89
53635;BME280;39542;-34.932;138.594;2023-05-23T00:28:13;102276.87;;;15.87;58.79
53635;BME280;39542;-34.932;138.594;2023-05-23T00:28:47;102278.71;;;15.87;58.79
53635;BME280;39542;-34.932;138.594;2023-05-23T00:29:21;102279.29;;;15.87;58.84
53635;BME280;39542;-34.932;138.594;2023-05-23T00:29:56;102277.85;;;15.84;58.89
53635;BME280;39542;-34.932;138.594;2023-05-23T00:30:31;102277.06;;;15.84;58.89
53635;BME280;39542;-34.932;138.594;2023-05-23T00:31:05;102277.53;;;15.84;58.86
53635;BME280;39542;-34.932;138.594;2023-05-23T00:31:40;102276.10;;;15.87;58.82
53635;BME280;39542;-34.932;138.594;2023-05-23T00:32:14;102274.73;;;15.83;58.91
53635;BME280;39542;-34.932;138.594;2023-05-23T00:32:48;102273.02;;;15.84;58.92
53635;BME280;39542;-34.932;138.594;2023-05-23T00:33:22;102270.05;;;15.84;58.91
53635;BME280;39542;-34.932;138.594;2023-05-23T00:33:57;102271.69;;;15.87;58.87
53635;BME280;39542;-34.932;138.594;2023-05-23T00:34:31;102271.30;;;15.86;58.88
53635;BME280;39542;-34.932;138.594;2023-05-23T00:35:06;102271.35;;;15.86;58.87
53635;BME280;39542;-34.932;138.594;2023-05-23T00:35:41;102270.25;;;15.85;58.90
53635;BME280;39542;-34.932;138.594;2023-05-23T00:36:15;102271.63;;;15.83;58.95
53635;BME280;39542;-34.932;138.594;2023-05-23T00:36:50;102270.20;;;15.84;58.97
53635;BME280;39542;-34.932;138.594;2023-05-23T00:37:24;102268.69;;;15.86;58.91
53635;BME280;39542;-34.932;138.594;2023-05-23T00:37:58;102270.85;;;15.87;58.90
53635;BME280;39542;-34.932;138.594;2023-05-23T00:38:32;102267.54;;;15.85;58.92
53635;BME280;39542;-34.932;138.594;2023-05-23T00:39:07;102264.90;;;15.84;58.96
53635;BME280;39542;-34.932;138.594;2023-05-23T00:39:41;102263.02;;;15.83;58.96
53635;BME280;39542;-34.932;138.594;2023-05-23T00:40:15;102262.41;;;15.84;59.03
53635;BME280;39542;-34.932;138.594;2023-05-23T00:40:49;102259.91;;;15.85;58.97
53635;BME280;39542;-34.932;138.594;2023-05-23T00:41:23;102258.96;;;15.84;59.03
53635;BME280;39542;-34.932;138.594;2023-05-23T00:41:58;102257.44;;;15.85;58.98
53635;BME280;39542;-34.932;138.594;2023-05-23T00:42:32;102254.59;;;15.85;58.95
53635;BME280;39542;-34.932;138.594;2023-05-23T00:43:06;102256.28;;;15.82;59.01
53635;BME280;39542;-34.932;138.594;2023-05-23T00:43:40;102254.10;;;15.85;58.97
53635;BME280;39542;-34.932;138.594;2023-05-23T00:44:15;102251.59;;;15.86;58.92
53635;BME280;39542;-34.932;138.594;2023-05-23T00:44:49;102251.68;;;15.85;59.01
53635;BME280;39542;-34.932;138.594;2023-05-23T00:45:23;102252.20;;;15.87;58.99
53635;BME280;39542;-34.932;138.594;2023-05-23T00:45:58;102252.65;;;15.84;59.06
53635;BME280;39542;-34.932;138.594;2023-05-23T00:46:33;102251.18;;;15.85;58.99
53635;BME280;39542;-34.932;138.594;2023-05-23T00:47:08;102249.90;;;15.84;59.08
53635;BME280;39542;-34.932;138.594;2023-05-23T00:47:43;102252.35;;;15.84;59.03
53635;BME280;39542;-34.932;138.594;2023-05-23T00:48:18;102249.22;;;15.88;58.99
53635;BME280;39542;-34.932;138.594;2023-05-23T00:48:52;102250.33;;;15.86;59.00
53635;BME280;39542;-34.932;138.594;2023-05-23T00:49:27;102249.48;;;15.88;58.99
53635;BME280;39542;-34.932;138.594;2023-05-23T00:50:02;102249.44;;;15.87;58.99
53635;BME280;39542;-34.932;138.594;2023-05-23T00:50:36;102250.91;;;15.85;59.10
53635;BME280;39542;-34.932;138.594;2023-05-23T00:51:11;102250.80;;;15.87;59.04
53635;BME280;39542;-34.932;138.594;2023-05-23T00:51:45;102249.28;;;15.90;58.96
53635;BME280;39542;-34.932;138.594;2023-05-23T00:52:19;102251.27;;;15.89;58.96
53635;BME280;39542;-34.932;138.594;2023-05-23T00:52:54;102251.97;;;15.89;59.02
53635;BME280;39542;-34.932;138.594;2023-05-23T00:53:29;102252.03;;;15.88;58.98
53635;BME280;39542;-34.932;138.594;2023-05-23T00:54:05;102251.36;;;15.87;59.04
53635;BME280;39542;-34.932;138.594;2023-05-23T00:54:39;102250.95;;;15.87;59.04
53635;BME280;39542;-34.932;138.594;2023-05-23T00:55:14;102253.38;;;15.87;58.99
53635;BME280;39542;-34.932;138.594;2023-05-23T00:55:49;102250.23;;;15.87;59.04
53635;BME280;39542;-34.932;138.594;2023-05-23T00:56:23;102252.82;;;15.86;59.08
53635;BME280;39542;-34.932;138.594;2023-05-23T00:56:59;102253.16;;;15.88;59.04
53635;BME280;39542;-34.932;138.594;2023-05-23T00:57:33;102252.29;;;15.87;59.04
53635;BME280;39542;-34.932;138.594;2023-05-23T00:58:08;102251.62;;;15.88;59.05
53635;BME280;39542;-34.932;138.594;2023-05-23T00:58:43;102251.85;;;15.88;59.08
53635;BME280;39542;-34.932;138.594;2023-05-23T00:59:17;102248.54;;;15.87;59.06
53635;BME280;39542;-34.932;138.594;2023-05-23T00:59:52;102250.02;;;15.89;59.00
53635;BME280;39542;-34.932;138.594;2023-05-23T01:00:27;102249.13;;;15.90;58.97
53635;BME280;39542;-34.932;138.594;2023-05-23T01:01:01;102247.87;;;15.91;58.96
53635;BME280;39542;-34.932;138.594;2023-05-23T01:01:36;102250.11;;;15.88;59.04
53635;BME280;39542;-34.932;138.594;2023-05-23T01:02:10;102249.22;;;15.88;59.04
53635;BME280;39542;-34.932;138.594;2023-05-23T01:02:45;102250.03;;;15.88;58.99
53635;BME280;39542;-34.932;138.594;2023-05-23T01:03:20;102251.04;;;15.85;59.08
53635;BME280;39542;-34.932;138.594;2023-05-23T01:03:54;102253.07;;;15.87;59.08
53635;BME280;39542;-34.932;138.594;2023-05-23T01:04:28;102250.04;;;15.87;59.06
53635;BME280;39542;-34.932;138.594;2023-05-23T01:05:03;102251.97;;;15.87;59.08
53635;BME280;39542;-34.932;138.594;2023-05-23T01:05:37;102250.16;;;15.86;59.08
53635;BME280;39542;-34.932;138.594;2023-05-23T01:06:13;102248.07;;;15.87;59.07
53635;BME280;39542;-34.932;138.594;2023-05-23T01:06:47;102248.54;;;15.87;59.06
53635;BME280;39542;-34.932;138.594;2023-05-23T01:07:21;102250.19;;;15.88;59.05
53635;BME280;39542;-34.932;138.594;2023-05-23T01:07:56;102249.57;;;15.87;59.07
53635;BME280;39542;-34.932;138.594;2023-05-23T01:08:30;102246.64;;;15.88;59.06
53635;BME280;39542;-34.932;138.594;2023-05-23T01:09:05;102247.68;;;15.89;59.07
53635;BME280;39542;-34.932;138.594;2023-05-23T01:09:39;102248.29;;;15.88;59.11
53635;BME280;39542;-34.932;138.594;2023-05-23T01:10:15;102250.75;;;15.89;59.05
53635;BME280;39542;-34.932;138.594;2023-05-23T01:10:50;102250.82;;;15.89;59.06
53635;BME280;39542;-34.932;138.594;2023-05-23T01:11:31;102250.32;;;15.90;59.05
53635;BME280;39542;-34.932;138.594;2023-05-23T01:12:16;102250.41;;;15.91;58.99
53635;BME280;39542;-34.932;138.594;2023-05-23T01:13:03;102250.78;;;15.89;59.06
53635;BME280;39542;-34.932;138.594;2023-05-23T01:13:44;102247.81;;;15.89;59.05
53635;BME280;39542;-34.932;138.594;2023-05-23T01:14:25;102250.45;;;15.88;59.09
53635;BME280;39542;-34.932;138.594;2023-05-23T01:15:07;102250.05;;;15.89;59.09
53635;BME280;39542;-34.932;138.594;2023-05-23T01:15:47;102251.63;;;15.85;59.13
53635;BME280;39542;-34.932;138.594;2023-05-23T01:16:32;102251.15;;;15.89;59.18
53635;BME280;39542;-34.932;138.594;2023-05-23T01:17:14;102250.75;;;15.90;59.09
53635;BME280;39542;-34.932;138.594;2023-05-23T01:17:56;102252.10;;;15.91;59.09
53635;BME280;39542;-34.932;138.594;2023-05-23T01:18:36;102251.13;;;15.91;59.09
53635;BME280;39542;-34.932;138.594;2023-05-23T01:19:27;102249.61;;;15.89;59.12
53635;BME280;39542;-34.932;138.594;2023-05-23T01:20:11;102250.81;;;15.90;59.06
53635;BME280;39542;-34.932;138.594;2023-05-23T01:20:49;102252.83;;;15.91;59.08
53635;BME280;39542;-34.932;138.594;2023-05-23T01:21:24;102252.61;;;15.90;59.12
53635;BME280;39542;-34.932;138.594;2023-05-23T01:22:02;102252.45;;;15.92;59.06
53635;BME280;39542;-34.932;138.594;2023-05-23T01:22:58;102253.67;;;15.93;59.08
53635;BME280;39542;-34.932;138.594;2023-05-23T01:24:08;102253.82;;;15.94;59.06
53635;BME280;39542;-34.932;138.594;2023-05-23T01:24:59;102255.12;;;15.94;59.04
53635;BME280;39542;-34.932;138.594;2023-05-23T01:25:52;102251.52;;;15.94;59.09
53635;BME280;39542;-34.932;138.594;2023-05-23T01:26:49;102250.72;;;15.96;58.99
53635;BME280;39542;-34.932;138.594;2023-05-23T01:27:41;102249.37;;;15.95;59.09
53635;BME280;39542;-34.932;138.594;2023-05-23T01:28:20;102250.34;;;15.93;59.09
53635;BME280;39542;-34.932;138.594;2023-05-23T01:28:57;102248.75;;;15.95;59.09
53635;BME280;39542;-34.932;138.594;2023-05-23T01:29:36;102247.49;;;15.95;59.08
53635;BME280;39542;-34.932;138.594;2023-05-23T01:30:13;102248.87;;;15.95;59.08
53635;BME280;39542;-34.932;138.594;2023-05-23T01:30:52;102247.02;;;15.96;59.09
53635;BME280;39542;-34.932;138.594;2023-05-23T01:31:30;102245.88;;;15.96;59.09
53635;BME280;39542;-34.932;138.594;2023-05-23T01:32:09;102246.07;;;15.98;59.03
53635;BME280;39542;-34.932;138.594;2023-05-23T01:32:45;102244.73;;;16.00;59.00
53635;BME280;39542;-34.932;138.594;2023-05-23T01:33:21;102242.80;;;15.98;59.01
53635;BME280;39542;-34.932;138.594;2023-05-23T01:33:56;102244.23;;;15.98;59.01
53635;BME280;39542;-34.932;138.594;2023-05-23T01:34:31;102241.90;;;15.97;59.08
53635;BME280;39542;-34.932;138.594;2023-05-23T01:35:08;102242.26;;;15.99;59.03
53635;BME280;39542;-34.932;138.594;2023-05-23T01:35:44;102244.88;;;15.99;59.00
53635;BME280;39542;-34.932;138.594;2023-05-23T01:36:18;102246.79;;;16.00;59.00
53635;BME280;39542;-34.932;138.594;2023-05-23T01:36:55;102245.35;;;15.97;59.03
53635;BME280;39542;-34.932;138.594;2023-05-23T01:37:30;102243.37;;;15.98;59.06
53635;BME280;39542;-34.932;138.594;2023-05-23T01:38:05;102246.61;;;15.98;59.06
53635;BME280;39542;-34.932;138.594;2023-05-23T01:38:39;102245.51;;;15.97;59.07
53635;BME280;39542;-34.932;138.594;2023-05-23T01:39:14;102244.71;;;15.95;59.13
53635;BME280;39542;-34.932;138.594;2023-05-23T01:39:48;102244.79;;;15.94;59.18
53635;BME280;39542;-34.932;138.594;2023-05-23T01:40:23;102243.74;;;15.95;59.13
53635;BME280;39542;-34.932;138.594;2023-05-23T01:40:58;102241.82;;;15.97;59.11
53635;BME280;39542;-34.932;138.594;2023-05-23T01:41:33;102240.83;;;15.97;59.08
53635;BME280;39542;-34.932;138.594;2023-05-23T01:42:08;102240.47;;;15.98;59.07
53635;BME280;39542;-34.932;138.594;2023-05-23T01:42:42;102240.86;;;15.98;59.13
53635;BME280;39542;-34.932;138.594;2023-05-23T01:43:17;102239.88;;;15.98;59.06
53635;BME280;39542;-34.932;138.594;2023-05-23T01:43:51;102236.94;;;15.97;59.09
53635;BME280;39542;-34.932;138.594;2023-05-23T01:44:25;102236.65;;;15.98;59.07
53635;BME280;39542;-34.932;138.594;2023-05-23T01:45:00;102237.37;;;15.96;59.13
53635;BME280;39542;-34.932;138.594;2023-05-23T01:45:35;102234.64;;;15.99;59.08
53635;BME280;39542;-34.932;138.594;2023-05-23T01:46:10;102235.09;;;16.01;59.03
53635;BME280;39542;-34.932;138.594;2023-05-23T01:46:46;102233.20;;;16.02;59.05
53635;BME280;39542;-34.932;138.594;2023-05-23T01:47:22;102229.09;;;16.01;59.05
53635;BME280;39542;-34.932;138.594;2023-05-23T01:47:57;102230.37;;;16.01;59.09
53635;BME280;39542;-34.932;138.594;2023-05-23T01:48:32;102231.22;;;16.04;59.02
53635;BME280;39542;-34.932;138.594;2023-05-23T01:49:08;102229.96;;;16.04;59.01
53635;BME280;39542;-34.932;138.594;2023-05-23T01:49:45;102232.78;;;16.02;59.03
53635;BME280;39542;-34.932;138.594;2023-05-23T01:50:20;102227.63;;;16.00;59.09
53635;BME280;39542;-34.932;138.594;2023-05-23T01:50:56;102229.54;;;16.02;59.14
53635;BME280;39542;-34.932;138.594;2023-05-23T01:51:30;102227.57;;;16.04;59.08
53635;BME280;39542;-34.932;138.594;2023-05-23T01:52:05;102228.70;;;16.04;59.01
53635;BME280;39542;-34.932;138.594;2023-05-23T01:52:40;102225.59;;;16.02;59.05
53635;BME280;39542;-34.932;138.594;2023-05-23T01:53:18;102227.80;;;16.01;59.09
53635;BME280;39542;-34.932;138.594;2023-05-23T01:53:52;102227.70;;;16.01;59.13
53635;BME280;39542;-34.932;138.594;2023-05-23T01:54:27;102226.68;;;16.04;59.06
53635;BME280;39542;-34.932;138.594;2023-05-23T01:55:02;102226.73;;;16.03;59.05
53635;BME280;39542;-34.932;138.594;2023-05-23T01:55:38;102226.97;;;16.01;59.10
53635;BME280;39542;-34.932;138.594;2023-05-23T01:56:14;102223.48;;;16.04;59.06
53635;BME280;39542;-34.932;138.594;2023-05-23T01:56:49;102224.51;;;16.06;59.02
53635;BME280;39542;-34.932;138.594;2023-05-23T01:57:24;102223.07;;;16.05;59.02
53635;BME280;39542;-34.932;138.594;2023-05-23T01:58:00;102217.96;;;16.04;59.04
53635;BME280;39542;-34.932;138.594;2023-05-23T01:58:35;102216.75;;;16.03;59.01
53635;BME280;39542;-34.932;138.594;2023-05-23T01:59:09;102216.22;;;16.03;59.09
53635;BME280;39542;-34.932;138.594;2023-05-23T01:59:44;102215.20;;;16.03;59.09
53635;BME280;39542;-34.932;138.594;2023-05-23T02:00:19;102213.72;;;16.01;59.08
53635;BME280;39542;-34.932;138.594;2023-05-23T02:00:53;102211.14;;;16.03;59.10
53635;BME280;39542;-34.932;138.594;2023-05-23T02:01:29;102212.49;;;16.03;59.12
53635;BME280;39542;-34.932;138.594;2023-05-23T02:02:03;102208.52;;;16.01;59.09
53635;BME280;39542;-34.932;138.594;2023-05-23T02:02:38;102206.41;;;16.01;59.10
53635;BME280;39542;-34.932;138.594;2023-05-23T02:03:12;102205.88;;;15.99;59.14
53635;BME280;39542;-34.932;138.594;2023-05-23T02:03:47;102202.12;;;16.00;59.13
53635;BME280;39542;-34.932;138.594;2023-05-23T02:04:22;102202.72;;;16.03;59.09
53635;BME280;39542;-34.932;138.594;2023-05-23T02:04:56;102199.10;;;16.04;59.06
53635;BME280;39542;-34.932;138.594;2023-05-23T02:05:30;102194.91;;;16.04;59.05
53635;BME280;39542;-34.932;138.594;2023-05-23T02:06:06;102198.08;;;16.04;59.06
53635;BME280;39542;-34.932;138.594;2023-05-23T02:06:40;102194.60;;;16.04;59.11
53635;BME280;39542;-34.932;138.594;2023-05-23T02:07:15;102189.74;;;16.04;59.05
53635;BME280;39542;-34.932;138.594;2023-05-23T02:07:49;102192.41;;;16.06;59.02
53635;BME280;39542;-34.932;138.594;2023-05-23T02:08:23;102191.44;;;16.06;59.05
53635;BME280;39542;-34.932;138.594;2023-05-23T02:08:58;102188.16;;;16.08;59.01
53635;BME280;39542;-34.932;138.594;2023-05-23T02:09:32;102190.33;;;16.09;59.00
53635;BME280;39542;-34.932;138.594;2023-05-23T02:10:08;102187.51;;;16.11;58.97
53635;BME280;39542;-34.932;138.594;2023-05-23T02:10:43;102190.56;;;16.11;58.93
53635;BME280;39542;-34.932;138.594;2023-05-23T02:11:17;102188.95;;;16.10;58.95
53635;BME280;39542;-34.932;138.594;2023-05-23T02:11:51;102189.68;;;16.07;59.02
53635;BME280;39542;-34.932;138.594;2023-05-23T02:12:25;102193.78;;;16.04;59.13
53635;BME280;39542;-34.932;138.594;2023-05-23T02:12:59;102192.17;;;16.06;59.08
53635;BME280;39542;-34.932;138.594;2023-05-23T02:13:34;102192.50;;;16.06;59.06
53635;BME280;39542;-34.932;138.594;2023-05-23T02:14:09;102192.83;;;16.05;59.10
53635;BME280;39542;-34.932;138.594;2023-05-23T02:14:43;102189.26;;;16.07;59.07
53635;BME280;39542;-34.932;138.594;2023-05-23T02:15:18;102194.71;;;16.09;59.12
53635;BME280;39542;-34.932;138.594;2023-05-23T02:15:52;102191.02;;;16.13;59.01
53635;BME280;39542;-34.932;138.594;2023-05-23T02:16:26;102193.91;;;16.15;58.97
53635;BME280;39542;-34.932;138.594;2023-05-23T02:17:00;102193.70;;;16.14;58.92
53635;BME280;39542;-34.932;138.594;2023-05-23T02:17:36;102192.77;;;16.15;58.95
53635;BME280;39542;-34.932;138.594;2023-05-23T02:18:10;102192.02;;;16.15;58.93
53635;BME280;39542;-34.932;138.594;2023-05-23T02:18:44;102191.17;;;16.15;58.91
53635;BME280;39542;-34.932;138.594;2023-05-23T02:19:18;102191.37;;;16.16;58.95
53635;BME280;39542;-34.932;138.594;2023-05-23T02:19:53;102191.21;;;16.18;58.90
53635;BME280;39542;-34.932;138.594;2023-05-23T02:20:27;102188.35;;;16.15;58.90
53635;BME280;39542;-34.932;138.594;2023-05-23T02:21:01;102183.84;;;16.15;58.91
53635;BME280;39542;-34.932;138.594;2023-05-23T02:21:36;102185.02;;;16.18;58.84
53635;BME280;39542;-34.932;138.594;2023-05-23T02:22:10;102181.81;;;16.16;58.89
53635;BME280;39542;-34.932;138.594;2023-05-23T02:22:45;102179.14;;;16.17;58.85
53635;BME280;39542;-34.932;138.594;2023-05-23T02:23:19;102177.91;;;16.16;58.89
53635;BME280;39542;-34.932;138.594;2023-05-23T02:23:53;102175.12;;;16.18;58.88
53635;BME280;39542;-34.932;138.594;2023-05-23T02:24:28;102174.63;;;16.16;58.91
53635;BME280;39542;-34.932;138.594;2023-05-23T02:25:02;102172.28;;;16.15;58.93
53635;BME280;39542;-34.932;138.594;2023-05-23T02:25:37;102171.47;;;16.14;58.94
53635;BME280;39542;-34.932;138.594;2023-05-23T02:26:11;102168.31;;;16.17;58.89
53635;BME280;39542;-34.932;138.594;2023-05-23T02:26:46;102169.30;;;16.14;58.94
53635;BME280;39542;-34.932;138.594;2023-05-23T02:27:20;102170.00;;;16.16;58.91
53635;BME280;39542;-34.932;138.594;2023-05-23T02:27:54;102169.12;;;16.13;58.97
53635;BME280;39542;-34.932;138.594;2023-05-23T02:28:28;102168.08;;;16.13;59.00
53635;BME280;39542;-34.932;138.594;2023-05-23T02:29:03;102163.22;;;16.15;58.92
53635;BME280;39542;-34.932;138.594;2023-05-23T02:29:37;102165.84;;;16.16;58.92
53635;BME280;39542;-34.932;138.594;2023-05-23T02:30:12;102167.05;;;16.15;58.90
53635;BME280;39542;-34.932;138.594;2023-05-23T02:30:46;102164.37;;;16.15;58.90
53635;BME280;39542;-34.932;138.594;2023-05-23T02:31:21;102160.87;;;16.16;58.93
53635;BME280;39542;-34.932;138.594;2023-05-23T02:31:55;102161.68;;;16.14;58.95
53635;BME280;39542;-34.932;138.594;2023-05-23T02:32:29;102159.83;;;16.13;58.93
53635;BME280;39542;-34.932;138.594;2023-05-23T02:33:06;102158.41;;;16.15;58.93
53635;BME280;39542;-34.932;138.594;2023-05-23T02:33:40;102157.82;;;16.17;58.91
53635;BME280;39542;-34.932;138.594;2023-05-23T02:34:15;102156.06;;;16.18;58.88
53635;BME280;39542;-34.932;138.594;2023-05-23T02:34:49;102154.96;;;16.16;58.88
53635;BME280;39542;-34.932;138.594;2023-05-23T02:35:23;102155.51;;;16.15;58.92
53635;BME280;39542;-34.932;138.594;2023-05-23T02:35:57;102154.92;;;16.15;58.89
53635;BME280;39542;-34.932;138.594;2023-05-23T02:36:31;102153.93;;;16.14;58.94
53635;BME280;39542;-34.932;138.594;2023-05-23T02:37:06;102152.86;;;16.14;58.96
53635;BME280;39542;-34.932;138.594;2023-05-23T02:37:40;102150.15;;;16.14;58.96
53635;BME280;39542;-34.932;138.594;2023-05-23T02:38:14;102152.21;;;16.15;58.97
53635;BME280;39542;-34.932;138.594;2023-05-23T02:38:48;102154.89;;;16.15;58.96
53635;BME280;39542;-34.932;138.594;2023-05-23T02:39:23;102151.10;;;16.15;58.94
53635;BME280;39542;-34.932;138.594;2023-05-23T02:39:57;102149.99;;;16.14;58.98
53635;BME280;39542;-34.932;138.594;2023-05-23T02:40:32;102148.36;;;16.14;59.01
53635;BME280;39542;-34.932;138.594;2023-05-23T02:41:06;102148.85;;;16.17;58.88
53635;BME280;39542;-34.932;138.594;2023-05-23T02:41:41;102147.55;;;16.16;58.95
53635;BME280;39542;-34.932;138.594;2023-05-23T02:42:15;102145.16;;;16.17;58.92
53635;BME280;39542;-34.932;138.594;2023-05-23T02:42:50;102144.32;;;16.16;58.94
53635;BME280;39542;-34.932;138.594;2023-05-23T02:43:24;102144.65;;;16.13;58.99
53635;BME280;39542;-34.932;138.594;2023-05-23T02:43:58;102141.29;;;16.17;58.92
53635;BME280;39542;-34.932;138.594;2023-05-23T02:44:32;102144.70;;;16.12;59.04
53635;BME280;39542;-34.932;138.594;2023-05-23T02:45:07;102141.98;;;16.14;58.98
53635;BME280;39542;-34.932;138.594;2023-05-23T02:45:42;102141.87;;;16.14;59.00
53635;BME280;39542;-34.932;138.594;2023-05-23T02:46:16;102140.35;;;16.13;58.99
53635;BME280;39542;-34.932;138.594;2023-05-23T02:46:50;102136.97;;;16.15;59.00
53635;BME280;39542;-34.932;138.594;2023-05-23T02:47:24;102138.16;;;16.20;58.93
53635;BME280;39542;-34.932;138.594;2023-05-23T02:47:59;102138.73;;;16.15;58.97
53635;BME280;39542;-34.932;138.594;2023-05-23T02:48:34;102136.70;;;16.17;58.97
53635;BME280;39542;-34.932;138.594;2023-05-23T02:49:08;102136.00;;;16.16;58.97
53635;BME280;39542;-34.932;138.594;2023-05-23T02:49:42;102136.23;;;16.17;58.97
53635;BME280;39542;-34.932;138.594;2023-05-23T02:50:16;102133.04;;;16.17;58.89
53635;BME280;39542;-34.932;138.594;2023-05-23T02:50:51;102131.47;;;16.18;58.95
53635;BME280;39542;-34.932;138.594;2023-05-23T02:51:25;102131.55;;;16.16;58.97
53635;BME280;39542;-34.932;138.594;2023-05-23T02:51:59;102132.26;;;16.17;58.95
53635;BME280;39542;-34.932;138.594;2023-05-23T02:52:34;102132.67;;;16.18;58.91
53635;BME280;39542;-34.932;138.594;2023-05-23T02:53:08;102133.38;;;16.16;59.00
53635;BME280;39542;-34.932;138.594;2023-05-23T02:53:43;102130.27;;;16.16;58.97
53635;BME280;39542;-34.932;138.594;2023-05-23T02:54:17;102128.33;;;16.17;58.98
53635;BME280;39542;-34.932;138.594;2023-05-23T02:54:51;102128.80;;;16.17;58.98
53635;BME280;39542;-34.932;138.594;2023-05-23T02:55:26;102126.23;;;16.19;58.96
53635;BME280;39542;-34.932;138.594;2023-05-23T02:56:00;102124.30;;;16.15;59.00
53635;BME280;39542;-34.932;138.594;2023-05-23T02:56:35;102126.67;;;16.19;58.95
53635;BME280;39542;-34.932;138.594;2023-05-23T02:57:09;102126.94;;;16.19;58.95
53635;BME280;39542;-34.932;138.594;2023-05-23T02:57:43;102128.29;;;16.17;58.96
53635;BME280;39542;-34.932;138.594;2023-05-23T02:58:17;102125.76;;;16.19;58.96